sensor_id;sensor_type;location;lat;lon;timestamp;P1;durP1;ratioP1;P2;durP2;ratioP2
31347;SDS011;21711;49.708;18.568;2023-04-15T00:01:10;0.35;;;0.20;;
31347;SDS011;21711;49.708;18.568;2023-04-15T00:03:37;2.38;;;0.20;;
31347;SDS011;21711;49.708;18.568;2023-04-15T00:06:05;1.08;;;0.20;;
31347;SDS011;21711;49.708;18.568;2023-04-15T00:08:33;0.90;;;0.40;;
31347;SDS011;21711;49.708;18.568;2023-04-15T00:11:00;0.75;;;0.40;;
31347;SDS011;21711;49.708;18.568;2023-04-15T00:15:59;0.20;;;0.10;;
31347;SDS011;21711;49.708;18.568;2023-04-15T00:18:27;0.50;;;0.30;;
31347;SDS011;21711;49.708;18.568;2023-04-15T00:20:55;0.82;;;0.43;;
31347;SDS011;21711;49.708;18.568;2023-04-15T00:23:22;1.15;;;0.25;;
31347;SDS011;21711;49.708;18.568;2023-04-15T00:25:50;0.40;;;0.30;;
31347;SDS011;21711;49.708;18.568;2023-04-15T00:28:17;1.95;;;0.30;;
31347;SDS011;21711;49.708;18.568;2023-04-15T00:30:45;0.32;;;0.17;;
31347;SDS011;21711;49.708;18.568;2023-04-15T00:33:13;3.35;;;0.30;;
31347;SDS011;21711;49.708;18.568;2023-04-15T00:35:45;0.63;;;0.20;;
31347;SDS011;21711;49.708;18.568;2023-04-15T00:38:12;1.27;;;0.22;;
31347;SDS011;21711;49.708;18.568;2023-04-15T00:40:40;0.35;;;0.25;;
31347;SDS011;21711;49.708;18.568;2023-04-15T00:43:08;0.63;;;0.30;;
31347;SDS011;21711;49.708;18.568;2023-04-15T00:45:36;0.75;;;0.30;;
31347;SDS011;21711;49.708;18.568;2023-04-15T00:48:04;0.60;;;0.30;;
31347;SDS011;21711;49.708;18.568;2023-04-15T00:50:32;0.40;;;0.20;;
31347;SDS011;21711;49.708;18.568;2023-04-15T00:52:59;0.90;;;0.20;;
31347;SDS011;21711;49.708;18.568;2023-04-15T00:55:27;0.20;;;0.10;;
31347;SDS011;21711;49.708;18.568;2023-04-15T00:57:55;1.88;;;0.20;;
31347;SDS011;21711;49.708;18.568;2023-04-15T01:00:23;0.40;;;0.30;;
31347;SDS011;21711;49.708;18.568;2023-04-15T01:02:51;1.85;;;0.40;;
31347;SDS011;21711;49.708;18.568;2023-04-15T01:05:18;1.17;;;0.28;;
31347;SDS011;21711;49.708;18.568;2023-04-15T01:07:46;0.45;;;0.20;;
31347;SDS011;21711;49.708;18.568;2023-04-15T01:10:14;0.43;;;0.30;;
31347;SDS011;21711;49.708;18.568;2023-04-15T01:12:41;0.52;;;0.38;;
31347;SDS011;21711;49.708;18.568;2023-04-15T01:15:10;0.85;;;0.50;;
31347;SDS011;21711;49.708;18.568;2023-04-15T01:17:37;0.77;;;0.30;;
31347;SDS011;21711;49.708;18.568;2023-04-15T01:20:05;0.95;;;0.70;;
31347;SDS011;21711;49.708;18.568;2023-04-15T01:25:10;0.53;;;0.40;;
31347;SDS011;21711;49.708;18.568;2023-04-15T01:27:45;1.20;;;0.52;;
31347;SDS011;21711;49.708;18.568;2023-04-15T01:30:14;0.50;;;0.28;;
31347;SDS011;21711;49.708;18.568;2023-04-15T01:32:41;0.43;;;0.35;;
31347;SDS011;21711;49.708;18.568;2023-04-15T01:35:08;1.27;;;0.65;;
31347;SDS011;21711;49.708;18.568;2023-04-15T01:37:36;1.30;;;0.55;;
31347;SDS011;21711;49.708;18.568;2023-04-15T01:40:03;1.83;;;0.40;;
31347;SDS011;21711;49.708;18.568;2023-04-15T01:42:32;0.90;;;0.65;;
31347;SDS011;21711;49.708;18.568;2023-04-15T01:45:02;1.27;;;0.57;;
31347;SDS011;21711;49.708;18.568;2023-04-15T01:47:29;0.52;;;0.38;;
31347;SDS011;21711;49.708;18.568;2023-04-15T01:49:57;2.03;;;0.73;;
31347;SDS011;21711;49.708;18.568;2023-04-15T01:52:24;1.00;;;0.50;;
31347;SDS011;21711;49.708;18.568;2023-04-15T01:54:52;0.80;;;0.50;;
31347;SDS011;21711;49.708;18.568;2023-04-15T01:57:19;0.90;;;0.40;;
31347;SDS011;21711;49.708;18.568;2023-04-15T01:59:46;0.80;;;0.38;;
31347;SDS011;21711;49.708;18.568;2023-04-15T02:02:13;0.63;;;0.40;;
31347;SDS011;21711;49.708;18.568;2023-04-15T02:04:41;0.80;;;0.43;;
31347;SDS011;21711;49.708;18.568;2023-04-15T02:07:08;0.60;;;0.30;;
31347;SDS011;21711;49.708;18.568;2023-04-15T02:09:36;0.52;;;0.30;;
31347;SDS011;21711;49.708;18.568;2023-04-15T02:12:06;0.68;;;0.40;;
31347;SDS011;21711;49.708;18.568;2023-04-15T02:14:34;0.73;;;0.30;;
31347;SDS011;21711;49.708;18.568;2023-04-15T02:17:01;1.58;;;0.40;;
31347;SDS011;21711;49.708;18.568;2023-04-15T02:19:33;0.52;;;0.32;;
31347;SDS011;21711;49.708;18.568;2023-04-15T02:22:02;0.90;;;0.43;;
31347;SDS011;21711;49.708;18.568;2023-04-15T02:24:29;0.80;;;0.35;;
31347;SDS011;21711;49.708;18.568;2023-04-15T02:26:56;0.82;;;0.38;;
31347;SDS011;21711;49.708;18.568;2023-04-15T02:29:24;0.52;;;0.30;;
31347;SDS011;21711;49.708;18.568;2023-04-15T02:31:51;1.70;;;0.77;;
31347;SDS011;21711;49.708;18.568;2023-04-15T02:34:18;1.48;;;0.52;;
31347;SDS011;21711;49.708;18.568;2023-04-15T02:36:46;1.20;;;0.60;;
31347;SDS011;21711;49.708;18.568;2023-04-15T02:39:15;1.55;;;1.00;;
31347;SDS011;21711;49.708;18.568;2023-04-15T02:41:44;1.42;;;0.47;;
31347;SDS011;21711;49.708;18.568;2023-04-15T02:44:17;0.85;;;0.40;;
31347;SDS011;21711;49.708;18.568;2023-04-15T02:49:19;0.60;;;0.30;;
31347;SDS011;21711;49.708;18.568;2023-04-15T02:51:48;0.68;;;0.32;;
31347;SDS011;21711;49.708;18.568;2023-04-15T02:54:18;1.25;;;0.40;;
31347;SDS011;21711;49.708;18.568;2023-04-15T02:56:48;1.85;;;0.30;;
31347;SDS011;21711;49.708;18.568;2023-04-15T02:59:16;3.00;;;0.45;;
31347;SDS011;21711;49.708;18.568;2023-04-15T03:01:43;2.42;;;1.15;;
31347;SDS011;21711;49.708;18.568;2023-04-15T03:04:11;1.25;;;0.50;;
31347;SDS011;21711;49.708;18.568;2023-04-15T03:06:39;0.65;;;0.50;;
31347;SDS011;21711;49.708;18.568;2023-04-15T03:09:08;1.70;;;0.73;;
31347;SDS011;21711;49.708;18.568;2023-04-15T03:11:37;0.70;;;0.38;;
31347;SDS011;21711;49.708;18.568;2023-04-15T03:14:08;1.17;;;0.40;;
31347;SDS011;21711;49.708;18.568;2023-04-15T03:16:39;0.80;;;0.35;;
31347;SDS011;21711;49.708;18.568;2023-04-15T03:19:07;0.88;;;0.45;;
31347;SDS011;21711;49.708;18.568;2023-04-15T03:21:35;1.00;;;0.63;;
31347;SDS011;21711;49.708;18.568;2023-04-15T03:24:03;2.22;;;0.75;;
31347;SDS011;21711;49.708;18.568;2023-04-15T03:26:30;18.13;;;5.28;;
31347;SDS011;21711;49.708;18.568;2023-04-15T03:29:01;50.42;;;12.77;;
31347;SDS011;21711;49.708;18.568;2023-04-15T03:31:28;122.82;;;29.77;;
31347;SDS011;21711;49.708;18.568;2023-04-15T03:33:55;139.30;;;36.30;;
31347;SDS011;21711;49.708;18.568;2023-04-15T03:36:23;10.15;;;2.47;;
31347;SDS011;21711;49.708;18.568;2023-04-15T03:38:51;10.25;;;2.38;;
31347;SDS011;21711;49.708;18.568;2023-04-15T03:41:18;72.07;;;16.95;;
31347;SDS011;21711;49.708;18.568;2023-04-15T03:43:45;109.80;;;26.23;;
31347;SDS011;21711;49.708;18.568;2023-04-15T03:46:13;50.50;;;12.45;;
31347;SDS011;21711;49.708;18.568;2023-04-15T03:48:40;57.28;;;16.15;;
31347;SDS011;21711;49.708;18.568;2023-04-15T03:51:07;47.42;;;12.02;;
31347;SDS011;21711;49.708;18.568;2023-04-15T03:53:35;44.65;;;11.35;;
31347;SDS011;21711;49.708;18.568;2023-04-15T03:56:03;45.67;;;10.93;;
31347;SDS011;21711;49.708;18.568;2023-04-15T03:58:30;40.13;;;9.38;;
31347;SDS011;21711;49.708;18.568;2023-04-15T04:00:58;16.88;;;5.35;;
31347;SDS011;21711;49.708;18.568;2023-04-15T04:03:25;26.77;;;6.53;;
31347;SDS011;21711;49.708;18.568;2023-04-15T04:05:53;17.10;;;4.50;;
31347;SDS011;21711;49.708;18.568;2023-04-15T04:08:20;20.65;;;4.70;;
31347;SDS011;21711;49.708;18.568;2023-04-15T04:10:48;17.15;;;5.15;;
31347;SDS011;21711;49.708;18.568;2023-04-15T04:13:15;15.23;;;3.83;;
31347;SDS011;21711;49.708;18.568;2023-04-15T04:15:42;10.10;;;2.33;;
31347;SDS011;21711;49.708;18.568;2023-04-15T04:18:10;6.18;;;2.30;;
31347;SDS011;21711;49.708;18.568;2023-04-15T04:20:37;8.95;;;1.85;;
31347;SDS011;21711;49.708;18.568;2023-04-15T04:23:05;6.47;;;1.95;;
31347;SDS011;21711;49.708;18.568;2023-04-15T04:25:32;5.32;;;2.00;;
31347;SDS011;21711;49.708;18.568;2023-04-15T04:27:59;6.78;;;1.85;;
31347;SDS011;21711;49.708;18.568;2023-04-15T04:30:27;6.05;;;1.45;;
31347;SDS011;21711;49.708;18.568;2023-04-15T04:32:54;5.50;;;1.58;;
31347;SDS011;21711;49.708;18.568;2023-04-15T04:35:21;1.63;;;0.82;;
31347;SDS011;21711;49.708;18.568;2023-04-15T04:37:49;3.17;;;1.00;;
31347;SDS011;21711;49.708;18.568;2023-04-15T04:40:16;2.67;;;1.13;;
31347;SDS011;21711;49.708;18.568;2023-04-15T04:42:43;3.50;;;1.05;;
31347;SDS011;21711;49.708;18.568;2023-04-15T04:45:11;3.63;;;1.27;;
31347;SDS011;21711;49.708;18.568;2023-04-15T04:47:38;4.07;;;1.20;;
31347;SDS011;21711;49.708;18.568;2023-04-15T04:50:06;2.15;;;1.15;;
31347;SDS011;21711;49.708;18.568;2023-04-15T04:52:34;2.25;;;1.13;;
31347;SDS011;21711;49.708;18.568;2023-04-15T04:55:02;3.60;;;1.13;;
31347;SDS011;21711;49.708;18.568;2023-04-15T04:57:29;3.75;;;1.48;;
31347;SDS011;21711;49.708;18.568;2023-04-15T04:59:57;6.07;;;1.52;;
31347;SDS011;21711;49.708;18.568;2023-04-15T05:02:24;4.05;;;1.63;;
31347;SDS011;21711;49.708;18.568;2023-04-15T05:04:53;6.47;;;1.40;;
31347;SDS011;21711;49.708;18.568;2023-04-15T05:07:20;3.35;;;1.20;;
31347;SDS011;21711;49.708;18.568;2023-04-15T05:09:48;4.88;;;1.38;;
31347;SDS011;21711;49.708;18.568;2023-04-15T05:12:15;2.60;;;1.17;;
31347;SDS011;21711;49.708;18.568;2023-04-15T05:14:43;4.57;;;1.30;;
31347;SDS011;21711;49.708;18.568;2023-04-15T05:17:12;2.53;;;1.20;;
31347;SDS011;21711;49.708;18.568;2023-04-15T05:19:39;2.83;;;1.73;;
31347;SDS011;21711;49.708;18.568;2023-04-15T05:22:06;2.90;;;1.40;;
31347;SDS011;21711;49.708;18.568;2023-04-15T05:24:34;3.85;;;1.75;;
31347;SDS011;21711;49.708;18.568;2023-04-15T05:27:01;6.22;;;1.98;;
31347;SDS011;21711;49.708;18.568;2023-04-15T05:29:29;3.35;;;1.88;;
31347;SDS011;21711;49.708;18.568;2023-04-15T05:31:56;1.85;;;0.77;;
31347;SDS011;21711;49.708;18.568;2023-04-15T05:34:24;1.27;;;0.60;;
31347;SDS011;21711;49.708;18.568;2023-04-15T05:36:51;3.10;;;0.95;;
31347;SDS011;21711;49.708;18.568;2023-04-15T05:39:18;1.05;;;0.80;;
31347;SDS011;21711;49.708;18.568;2023-04-15T05:41:46;2.97;;;1.10;;
31347;SDS011;21711;49.708;18.568;2023-04-15T05:44:13;7.25;;;3.40;;
31347;SDS011;21711;49.708;18.568;2023-04-15T05:46:40;7.80;;;4.50;;
31347;SDS011;21711;49.708;18.568;2023-04-15T05:49:08;6.88;;;3.83;;
31347;SDS011;21711;49.708;18.568;2023-04-15T05:51:36;4.80;;;3.03;;
31347;SDS011;21711;49.708;18.568;2023-04-15T05:54:03;5.53;;;2.80;;
31347;SDS011;21711;49.708;18.568;2023-04-15T05:56:31;2.72;;;1.25;;
31347;SDS011;21711;49.708;18.568;2023-04-15T05:58:58;1.33;;;0.88;;
31347;SDS011;21711;49.708;18.568;2023-04-15T06:01:26;2.40;;;0.75;;
31347;SDS011;21711;49.708;18.568;2023-04-15T06:03:53;1.30;;;0.75;;
31347;SDS011;21711;49.708;18.568;2023-04-15T06:06:21;1.70;;;0.95;;
31347;SDS011;21711;49.708;18.568;2023-04-15T06:08:48;2.08;;;0.90;;
31347;SDS011;21711;49.708;18.568;2023-04-15T06:11:16;1.67;;;1.10;;
31347;SDS011;21711;49.708;18.568;2023-04-15T06:13:43;6.18;;;1.05;;
31347;SDS011;21711;49.708;18.568;2023-04-15T06:16:10;1.35;;;0.80;;
31347;SDS011;21711;49.708;18.568;2023-04-15T06:18:38;1.80;;;0.90;;
31347;SDS011;21711;49.708;18.568;2023-04-15T06:21:05;2.28;;;1.15;;
31347;SDS011;21711;49.708;18.568;2023-04-15T06:23:33;5.90;;;1.20;;
31347;SDS011;21711;49.708;18.568;2023-04-15T06:26:02;3.55;;;1.15;;
31347;SDS011;21711;49.708;18.568;2023-04-15T06:28:29;3.42;;;1.58;;
31347;SDS011;21711;49.708;18.568;2023-04-15T06:30:57;6.07;;;1.27;;
31347;SDS011;21711;49.708;18.568;2023-04-15T06:33:24;2.05;;;1.20;;
31347;SDS011;21711;49.708;18.568;2023-04-15T06:35:51;4.22;;;1.10;;
31347;SDS011;21711;49.708;18.568;2023-04-15T06:38:19;5.95;;;1.20;;
31347;SDS011;21711;49.708;18.568;2023-04-15T06:40:46;1.90;;;0.85;;
31347;SDS011;21711;49.708;18.568;2023-04-15T06:43:14;2.47;;;1.15;;
31347;SDS011;21711;49.708;18.568;2023-04-15T06:45:41;1.52;;;0.90;;
31347;SDS011;21711;49.708;18.568;2023-04-15T06:48:08;2.17;;;1.20;;
31347;SDS011;21711;49.708;18.568;2023-04-15T06:50:35;3.00;;;1.70;;
31347;SDS011;21711;49.708;18.568;2023-04-15T06:53:03;5.20;;;1.88;;
31347;SDS011;21711;49.708;18.568;2023-04-15T06:55:30;4.45;;;1.08;;
31347;SDS011;21711;49.708;18.568;2023-04-15T06:57:59;3.80;;;1.52;;
31347;SDS011;21711;49.708;18.568;2023-04-15T07:00:26;2.60;;;1.48;;
31347;SDS011;21711;49.708;18.568;2023-04-15T07:02:54;1.75;;;0.73;;
31347;SDS011;21711;49.708;18.568;2023-04-15T07:05:22;3.35;;;0.85;;
31347;SDS011;21711;49.708;18.568;2023-04-15T07:07:50;1.17;;;0.40;;
31347;SDS011;21711;49.708;18.568;2023-04-15T07:10:18;1.27;;;0.50;;
31347;SDS011;21711;49.708;18.568;2023-04-15T07:12:46;0.30;;;0.30;;
31347;SDS011;21711;49.708;18.568;2023-04-15T07:15:16;2.63;;;0.52;;
31347;SDS011;21711;49.708;18.568;2023-04-15T07:17:43;0.68;;;0.40;;
31347;SDS011;21711;49.708;18.568;2023-04-15T07:20:10;1.65;;;0.43;;
31347;SDS011;21711;49.708;18.568;2023-04-15T07:22:38;0.60;;;0.30;;
31347;SDS011;21711;49.708;18.568;2023-04-15T07:25:06;0.32;;;0.30;;
31347;SDS011;21711;49.708;18.568;2023-04-15T07:27:34;0.30;;;0.20;;
31347;SDS011;21711;49.708;18.568;2023-04-15T07:30:02;2.08;;;0.38;;
31347;SDS011;21711;49.708;18.568;2023-04-15T07:32:29;0.35;;;0.30;;
31347;SDS011;21711;49.708;18.568;2023-04-15T07:34:57;0.52;;;0.15;;
31347;SDS011;21711;49.708;18.568;2023-04-15T07:37:24;0.55;;;0.20;;
31347;SDS011;21711;49.708;18.568;2023-04-15T07:39:51;0.52;;;0.20;;
31347;SDS011;21711;49.708;18.568;2023-04-15T07:42:19;0.30;;;0.20;;
31347;SDS011;21711;49.708;18.568;2023-04-15T07:44:46;0.50;;;0.32;;
31347;SDS011;21711;49.708;18.568;2023-04-15T07:47:14;0.40;;;0.10;;
31347;SDS011;21711;49.708;18.568;2023-04-15T07:49:41;0.93;;;0.35;;
31347;SDS011;21711;49.708;18.568;2023-04-15T07:52:09;0.30;;;0.20;;
31347;SDS011;21711;49.708;18.568;2023-04-15T07:54:37;0.80;;;0.10;;
31347;SDS011;21711;49.708;18.568;2023-04-15T07:57:05;0.30;;;0.10;;
31347;SDS011;21711;49.708;18.568;2023-04-15T07:59:33;0.15;;;0.10;;
31347;SDS011;21711;49.708;18.568;2023-04-15T08:02:00;0.82;;;0.20;;
31347;SDS011;21711;49.708;18.568;2023-04-15T08:04:28;0.40;;;0.20;;
31347;SDS011;21711;49.708;18.568;2023-04-15T08:06:56;0.30;;;0.10;;
31347;SDS011;21711;49.708;18.568;2023-04-15T08:09:24;0.80;;;0.13;;
31347;SDS011;21711;49.708;18.568;2023-04-15T08:11:52;0.35;;;0.15;;
31347;SDS011;21711;49.708;18.568;2023-04-15T08:14:19;2.55;;;0.28;;
31347;SDS011;21711;49.708;18.568;2023-04-15T08:16:47;0.30;;;0.20;;
31347;SDS011;21711;49.708;18.568;2023-04-15T08:19:14;0.35;;;0.20;;
31347;SDS011;21711;49.708;18.568;2023-04-15T08:21:42;0.30;;;0.30;;
31347;SDS011;21711;49.708;18.568;2023-04-15T08:24:09;0.30;;;0.30;;
31347;SDS011;21711;49.708;18.568;2023-04-15T08:26:37;0.50;;;0.30;;
31347;SDS011;21711;49.708;18.568;2023-04-15T08:29:04;0.30;;;0.20;;
31347;SDS011;21711;49.708;18.568;2023-04-15T08:31:32;0.30;;;0.30;;
31347;SDS011;21711;49.708;18.568;2023-04-15T08:33:59;3.33;;;0.45;;
31347;SDS011;21711;49.708;18.568;2023-04-15T08:36:26;0.80;;;0.50;;
31347;SDS011;21711;49.708;18.568;2023-04-15T08:38:54;0.47;;;0.43;;
31347;SDS011;21711;49.708;18.568;2023-04-15T08:41:22;0.75;;;0.50;;
31347;SDS011;21711;49.708;18.568;2023-04-15T08:43:52;1.52;;;0.73;;
31347;SDS011;21711;49.708;18.568;2023-04-15T08:46:26;1.05;;;0.60;;
31347;SDS011;21711;49.708;18.568;2023-04-15T08:48:55;1.60;;;0.60;;
31347;SDS011;21711;49.708;18.568;2023-04-15T08:51:24;0.50;;;0.50;;
31347;SDS011;21711;49.708;18.568;2023-04-15T08:53:52;1.95;;;0.73;;
31347;SDS011;21711;49.708;18.568;2023-04-15T08:56:23;0.55;;;0.50;;
31347;SDS011;21711;49.708;18.568;2023-04-15T08:58:55;0.85;;;0.57;;
31347;SDS011;21711;49.708;18.568;2023-04-15T09:01:23;1.25;;;0.80;;
31347;SDS011;21711;49.708;18.568;2023-04-15T09:03:51;0.60;;;0.60;;
31347;SDS011;21711;49.708;18.568;2023-04-15T09:06:22;0.70;;;0.65;;
31347;SDS011;21711;49.708;18.568;2023-04-15T09:08:52;1.70;;;1.20;;
31347;SDS011;21711;49.708;18.568;2023-04-15T09:11:20;4.90;;;1.10;;
31347;SDS011;21711;49.708;18.568;2023-04-15T09:13:48;1.77;;;1.27;;
31347;SDS011;21711;49.708;18.568;2023-04-15T09:16:15;1.33;;;1.20;;
31347;SDS011;21711;49.708;18.568;2023-04-15T09:18:44;0.90;;;0.80;;
31347;SDS011;21711;49.708;18.568;2023-04-15T09:21:12;2.30;;;1.10;;
31347;SDS011;21711;49.708;18.568;2023-04-15T09:23:58;1.38;;;0.60;;
31347;SDS011;21711;49.708;18.568;2023-04-15T09:26:31;0.60;;;0.60;;
31347;SDS011;21711;49.708;18.568;2023-04-15T09:29:07;0.75;;;0.70;;
31347;SDS011;21711;49.708;18.568;2023-04-15T09:31:36;1.90;;;1.00;;
31347;SDS011;21711;49.708;18.568;2023-04-15T09:34:04;0.70;;;0.65;;
31347;SDS011;21711;49.708;18.568;2023-04-15T09:36:37;0.90;;;0.80;;
31347;SDS011;21711;49.708;18.568;2023-04-15T09:39:22;1.35;;;0.82;;
31347;SDS011;21711;49.708;18.568;2023-04-15T09:42:06;1.05;;;0.60;;
31347;SDS011;21711;49.708;18.568;2023-04-15T09:44:34;0.88;;;0.52;;
31347;SDS011;21711;49.708;18.568;2023-04-15T09:47:01;1.48;;;0.88;;
31347;SDS011;21711;49.708;18.568;2023-04-15T09:49:29;0.82;;;0.60;;
31347;SDS011;21711;49.708;18.568;2023-04-15T09:51:57;0.77;;;0.43;;
31347;SDS011;21711;49.708;18.568;2023-04-15T09:54:34;1.42;;;0.63;;
31347;SDS011;21711;49.708;18.568;2023-04-15T09:57:07;1.00;;;0.77;;
31347;SDS011;21711;49.708;18.568;2023-04-15T09:59:35;1.92;;;0.52;;
31347;SDS011;21711;49.708;18.568;2023-04-15T10:02:04;0.52;;;0.52;;
31347;SDS011;21711;49.708;18.568;2023-04-15T10:04:34;0.88;;;0.68;;
31347;SDS011;21711;49.708;18.568;2023-04-15T10:07:04;0.70;;;0.60;;
31347;SDS011;21711;49.708;18.568;2023-04-15T10:09:38;0.85;;;0.43;;
31347;SDS011;21711;49.708;18.568;2023-04-15T10:12:05;0.63;;;0.40;;
31347;SDS011;21711;49.708;18.568;2023-04-15T10:14:34;0.60;;;0.50;;
31347;SDS011;21711;49.708;18.568;2023-04-15T10:17:04;2.65;;;0.65;;
31347;SDS011;21711;49.708;18.568;2023-04-15T10:19:35;0.90;;;0.70;;
31347;SDS011;21711;49.708;18.568;2023-04-15T10:22:03;0.85;;;0.68;;
31347;SDS011;21711;49.708;18.568;2023-04-15T10:24:32;0.73;;;0.68;;
31347;SDS011;21711;49.708;18.568;2023-04-15T10:26:59;0.90;;;0.60;;
31347;SDS011;21711;49.708;18.568;2023-04-15T10:29:30;1.30;;;0.65;;
31347;SDS011;21711;49.708;18.568;2023-04-15T10:31:58;0.50;;;0.50;;
31347;SDS011;21711;49.708;18.568;2023-04-15T10:34:27;3.50;;;0.70;;
31347;SDS011;21711;49.708;18.568;2023-04-15T10:36:58;1.40;;;0.70;;
31347;SDS011;21711;49.708;18.568;2023-04-15T10:42:05;0.77;;;0.50;;
31347;SDS011;21711;49.708;18.568;2023-04-15T10:44:37;0.43;;;0.40;;
31347;SDS011;21711;49.708;18.568;2023-04-15T10:47:14;1.15;;;0.50;;
31347;SDS011;21711;49.708;18.568;2023-04-15T10:49:51;1.05;;;0.30;;
31347;SDS011;21711;49.708;18.568;2023-04-15T10:52:25;0.65;;;0.50;;
31347;SDS011;21711;49.708;18.568;2023-04-15T10:57:37;3.33;;;1.10;;
31347;SDS011;21711;49.708;18.568;2023-04-15T11:00:10;0.85;;;0.45;;
31347;SDS011;21711;49.708;18.568;2023-04-15T11:02:40;0.50;;;0.50;;
31347;SDS011;21711;49.708;18.568;2023-04-15T11:05:13;0.30;;;0.30;;
31347;SDS011;21711;49.708;18.568;2023-04-15T11:12:52;1.67;;;0.80;;
31347;SDS011;21711;49.708;18.568;2023-04-15T11:15:34;1.38;;;0.77;;
31347;SDS011;21711;49.708;18.568;2023-04-15T11:18:13;1.00;;;0.80;;
31347;SDS011;21711;49.708;18.568;2023-04-15T11:20:44;1.83;;;0.60;;
31347;SDS011;21711;49.708;18.568;2023-04-15T11:23:14;0.80;;;0.60;;
31347;SDS011;21711;49.708;18.568;2023-04-15T11:25:44;0.95;;;0.70;;
31347;SDS011;21711;49.708;18.568;2023-04-15T11:28:12;0.90;;;0.63;;
31347;SDS011;21711;49.708;18.568;2023-04-15T11:30:40;0.63;;;0.50;;
31347;SDS011;21711;49.708;18.568;2023-04-15T11:33:09;1.38;;;0.75;;
31347;SDS011;21711;49.708;18.568;2023-04-15T11:35:39;2.15;;;1.00;;
31347;SDS011;21711;49.708;18.568;2023-04-15T11:38:08;2.28;;;0.95;;
31347;SDS011;21711;49.708;18.568;2023-04-15T11:40:38;3.72;;;0.90;;
31347;SDS011;21711;49.708;18.568;2023-04-15T11:45:37;0.73;;;0.70;;
31347;SDS011;21711;49.708;18.568;2023-04-15T11:48:28;0.88;;;0.60;;
31347;SDS011;21711;49.708;18.568;2023-04-15T11:51:01;1.75;;;1.20;;
31347;SDS011;21711;49.708;18.568;2023-04-15T11:53:38;2.00;;;1.00;;
31347;SDS011;21711;49.708;18.568;2023-04-15T11:56:20;5.35;;;2.72;;
31347;SDS011;21711;49.708;18.568;2023-04-15T11:58:51;1.30;;;1.00;;
31347;SDS011;21711;49.708;18.568;2023-04-15T12:06:40;1.50;;;0.90;;
31347;SDS011;21711;49.708;18.568;2023-04-15T12:09:11;1.58;;;0.80;;
31347;SDS011;21711;49.708;18.568;2023-04-15T12:11:49;1.83;;;0.85;;
31347;SDS011;21711;49.708;18.568;2023-04-15T12:17:02;0.93;;;0.82;;
31347;SDS011;21711;49.708;18.568;2023-04-15T12:19:34;1.50;;;1.10;;
31347;SDS011;21711;49.708;18.568;2023-04-15T12:22:12;1.35;;;0.90;;
31347;SDS011;21711;49.708;18.568;2023-04-15T12:24:42;2.58;;;1.00;;
31347;SDS011;21711;49.708;18.568;2023-04-15T12:27:14;2.15;;;0.82;;
31347;SDS011;21711;49.708;18.568;2023-04-15T12:29:42;1.30;;;0.73;;
31347;SDS011;21711;49.708;18.568;2023-04-15T12:32:11;1.23;;;0.85;;
31347;SDS011;21711;49.708;18.568;2023-04-15T12:34:43;1.15;;;0.80;;
31347;SDS011;21711;49.708;18.568;2023-04-15T12:37:16;0.77;;;0.60;;
31347;SDS011;21711;49.708;18.568;2023-04-15T12:39:46;1.02;;;0.70;;
31347;SDS011;21711;49.708;18.568;2023-04-15T12:42:15;0.77;;;0.57;;
31347;SDS011;21711;49.708;18.568;2023-04-15T12:44:44;0.95;;;0.50;;
31347;SDS011;21711;49.708;18.568;2023-04-15T12:47:11;1.70;;;0.70;;
31347;SDS011;21711;49.708;18.568;2023-04-15T12:49:39;1.50;;;0.75;;
31347;SDS011;21711;49.708;18.568;2023-04-15T12:52:06;1.85;;;0.90;;
31347;SDS011;21711;49.708;18.568;2023-04-15T12:54:34;1.45;;;0.80;;
31347;SDS011;21711;49.708;18.568;2023-04-15T12:57:01;1.02;;;0.63;;
31347;SDS011;21711;49.708;18.568;2023-04-15T12:59:32;0.73;;;0.57;;
31347;SDS011;21711;49.708;18.568;2023-04-15T13:02:00;1.60;;;0.80;;
31347;SDS011;21711;49.708;18.568;2023-04-15T13:04:28;0.93;;;0.73;;
31347;SDS011;21711;49.708;18.568;2023-04-15T13:06:57;1.25;;;0.73;;
31347;SDS011;21711;49.708;18.568;2023-04-15T13:09:24;1.00;;;0.70;;
31347;SDS011;21711;49.708;18.568;2023-04-15T13:11:51;0.98;;;0.68;;
31347;SDS011;21711;49.708;18.568;2023-04-15T13:14:20;1.15;;;0.63;;
31347;SDS011;21711;49.708;18.568;2023-04-15T13:16:47;1.65;;;0.90;;
31347;SDS011;21711;49.708;18.568;2023-04-15T13:19:14;1.27;;;0.88;;
31347;SDS011;21711;49.708;18.568;2023-04-15T13:21:41;0.95;;;0.50;;
31347;SDS011;21711;49.708;18.568;2023-04-15T13:24:09;0.95;;;0.70;;
31347;SDS011;21711;49.708;18.568;2023-04-15T13:26:36;2.20;;;0.55;;
31347;SDS011;21711;49.708;18.568;2023-04-15T13:29:03;1.63;;;0.98;;
31347;SDS011;21711;49.708;18.568;2023-04-15T13:31:31;1.10;;;0.80;;
31347;SDS011;21711;49.708;18.568;2023-04-15T13:33:58;1.02;;;0.75;;
31347;SDS011;21711;49.708;18.568;2023-04-15T13:36:26;0.95;;;0.70;;
31347;SDS011;21711;49.708;18.568;2023-04-15T13:38:53;0.75;;;0.63;;
31347;SDS011;21711;49.708;18.568;2023-04-15T13:41:21;0.85;;;0.55;;
31347;SDS011;21711;49.708;18.568;2023-04-15T13:43:48;1.33;;;0.88;;
31347;SDS011;21711;49.708;18.568;2023-04-15T13:46:15;1.98;;;1.10;;
31347;SDS011;21711;49.708;18.568;2023-04-15T13:48:43;2.22;;;1.55;;
31347;SDS011;21711;49.708;18.568;2023-04-15T13:51:10;1.23;;;0.65;;
31347;SDS011;21711;49.708;18.568;2023-04-15T13:53:37;1.33;;;1.20;;
31347;SDS011;21711;49.708;18.568;2023-04-15T13:56:05;0.93;;;0.70;;
31347;SDS011;21711;49.708;18.568;2023-04-15T13:58:34;3.85;;;2.38;;
31347;SDS011;21711;49.708;18.568;2023-04-15T14:01:03;3.75;;;1.67;;
31347;SDS011;21711;49.708;18.568;2023-04-15T14:03:35;1.63;;;1.05;;
31347;SDS011;21711;49.708;18.568;2023-04-15T14:06:04;2.55;;;1.20;;
31347;SDS011;21711;49.708;18.568;2023-04-15T14:08:32;1.90;;;1.30;;
31347;SDS011;21711;49.708;18.568;2023-04-15T14:10:59;1.30;;;0.70;;
31347;SDS011;21711;49.708;18.568;2023-04-15T14:13:27;1.30;;;0.60;;
31347;SDS011;21711;49.708;18.568;2023-04-15T14:15:55;1.55;;;0.68;;
31347;SDS011;21711;49.708;18.568;2023-04-15T14:18:23;1.00;;;0.60;;
31347;SDS011;21711;49.708;18.568;2023-04-15T14:20:50;1.33;;;0.70;;
31347;SDS011;21711;49.708;18.568;2023-04-15T14:23:18;2.17;;;0.90;;
31347;SDS011;21711;49.708;18.568;2023-04-15T14:25:45;1.35;;;0.70;;
31347;SDS011;21711;49.708;18.568;2023-04-15T14:28:13;1.95;;;0.70;;
31347;SDS011;21711;49.708;18.568;2023-04-15T14:30:41;1.08;;;0.70;;
31347;SDS011;21711;49.708;18.568;2023-04-15T14:33:09;3.42;;;1.02;;
31347;SDS011;21711;49.708;18.568;2023-04-15T14:35:36;1.75;;;0.77;;
31347;SDS011;21711;49.708;18.568;2023-04-15T14:38:04;3.20;;;1.20;;
31347;SDS011;21711;49.708;18.568;2023-04-15T14:40:35;2.10;;;0.77;;
31347;SDS011;21711;49.708;18.568;2023-04-15T14:43:03;1.00;;;0.60;;
31347;SDS011;21711;49.708;18.568;2023-04-15T14:45:30;1.10;;;0.80;;
31347;SDS011;21711;49.708;18.568;2023-04-15T14:47:58;1.00;;;0.60;;
31347;SDS011;21711;49.708;18.568;2023-04-15T14:50:25;0.90;;;0.60;;
31347;SDS011;21711;49.708;18.568;2023-04-15T14:52:53;1.08;;;0.70;;
31347;SDS011;21711;49.708;18.568;2023-04-15T14:55:20;1.60;;;1.00;;
31347;SDS011;21711;49.708;18.568;2023-04-15T14:57:47;1.92;;;0.98;;
31347;SDS011;21711;49.708;18.568;2023-04-15T15:00:15;1.23;;;0.65;;
31347;SDS011;21711;49.708;18.568;2023-04-15T15:02:42;0.80;;;0.50;;
31347;SDS011;21711;49.708;18.568;2023-04-15T15:05:10;1.17;;;0.60;;
31347;SDS011;21711;49.708;18.568;2023-04-15T15:07:38;2.33;;;0.65;;
31347;SDS011;21711;49.708;18.568;2023-04-15T15:10:08;2.00;;;0.85;;